createdAt,value
2022-10-14T00:01:31.588Z,9.70
2022-10-14T00:04:14.727Z,9.72
2022-10-14T00:06:46.758Z,9.72
2022-10-14T00:09:19.521Z,9.74
2022-10-14T00:11:51.806Z,9.77
2022-10-14T00:14:22.755Z,9.80
2022-10-14T00:16:56.744Z,9.80
2022-10-14T00:19:28.688Z,9.81
2022-10-14T00:22:01.232Z,9.84
2022-10-14T00:24:33.039Z,9.86
2022-10-14T00:27:05.002Z,9.89
2022-10-14T00:29:37.244Z,9.87
2022-10-14T00:32:09.455Z,9.86
2022-10-14T00:34:41.933Z,9.83
2022-10-14T00:37:12.257Z,9.75
2022-10-14T00:39:44.547Z,9.63
2022-10-14T00:42:15.429Z,9.54
2022-10-14T00:45:06.865Z,9.49
2022-10-14T00:47:41.782Z,9.49
2022-10-14T00:50:15.610Z,9.51
2022-10-14T00:52:47.964Z,9.53
2022-10-14T00:55:21.813Z,9.54
2022-10-14T00:57:54.210Z,9.54
2022-10-14T01:00:26.461Z,9.52
2022-10-14T01:02:59.084Z,9.51
2022-10-14T01:05:37.730Z,9.50
2022-10-14T01:08:16.383Z,9.49
2022-10-14T01:10:56.628Z,9.49
2022-10-14T01:13:34.462Z,9.49
2022-10-14T01:16:17.960Z,9.45
2022-10-14T01:19:03.515Z,9.40
2022-10-14T01:21:38.862Z,9.39
2022-10-14T01:24:41.463Z,9.36
2022-10-14T01:27:44.242Z,9.35
2022-10-14T01:30:17.448Z,9.33
2022-10-14T01:33:10.645Z,9.32
2022-10-14T01:35:55.228Z,9.34
2022-10-14T01:38:31.936Z,9.38
2022-10-14T01:41:11.690Z,9.40
2022-10-14T01:43:47.622Z,9.42
2022-10-14T01:46:23.405Z,9.43
2022-10-14T01:49:00.066Z,9.42
2022-10-14T01:51:37.842Z,9.42
2022-10-14T01:54:15.445Z,9.42
2022-10-14T01:56:50.415Z,9.41
2022-10-14T01:59:25.172Z,9.38
2022-10-14T02:01:57.179Z,9.39
2022-10-14T02:04:29.306Z,9.38
2022-10-14T02:07:07.217Z,9.38
2022-10-14T02:09:48.844Z,9.39
2022-10-14T02:12:33.399Z,9.41
2022-10-14T02:15:20.887Z,9.38
2022-10-14T02:17:58.906Z,9.31
2022-10-14T02:20:36.205Z,9.24
2022-10-14T02:23:13.149Z,9.20
2022-10-14T02:25:48.821Z,9.17
2022-10-14T02:28:24.417Z,9.15
2022-10-14T02:31:00.353Z,9.11
2022-10-14T02:33:36.416Z,9.06
2022-10-14T02:36:11.461Z,9.05
2022-10-14T02:38:44.248Z,9.03
2022-10-14T02:41:20.317Z,8.99
2022-10-14T02:43:52.325Z,8.93
2022-10-14T02:46:24.549Z,8.87
2022-10-14T02:48:56.431Z,8.83
2022-10-14T02:51:28.454Z,8.84
2022-10-14T02:54:01.634Z,8.86
2022-10-14T02:58:01.835Z,8.91
2022-10-14T03:00:30.389Z,8.89
2022-10-14T03:02:58.915Z,8.90
2022-10-14T03:05:28.069Z,8.89
2022-10-14T03:07:56.835Z,8.87
2022-10-14T03:10:26.142Z,8.85
2022-10-14T03:12:54.648Z,8.84
2022-10-14T03:15:30.387Z,8.81
2022-10-14T03:18:00.509Z,8.78
2022-10-14T03:20:37.295Z,8.77
2022-10-14T03:23:06.774Z,8.76
2022-10-14T03:25:38.618Z,8.75
2022-10-14T03:28:11.572Z,8.70
2022-10-14T03:30:48.344Z,8.65
2022-10-14T03:33:20.673Z,8.58
2022-10-14T03:36:15.807Z,8.47
2022-10-14T03:38:47.390Z,8.42
2022-10-14T03:41:26.756Z,8.40
2022-10-14T03:43:55.641Z,8.44
2022-10-14T03:46:27.095Z,8.44
2022-10-14T03:48:55.637Z,8.43
2022-10-14T03:51:24.164Z,8.40
2022-10-14T03:53:54.976Z,8.41
2022-10-14T03:56:27.380Z,8.41
2022-10-14T03:58:56.476Z,8.45
2022-10-14T04:01:25.838Z,8.48
2022-10-14T04:04:07.142Z,8.50
2022-10-14T04:06:36.008Z,8.52
2022-10-14T04:09:05.446Z,8.52
2022-10-14T04:11:38.170Z,8.52
2022-10-14T04:14:10.235Z,8.52
2022-10-14T04:16:49.661Z,8.51
2022-10-14T04:19:19.805Z,8.48
2022-10-14T04:21:48.602Z,8.39
2022-10-14T04:24:17.738Z,8.34
2022-10-14T04:26:53.651Z,8.35
2022-10-14T04:29:45.727Z,8.35
2022-10-14T04:32:19.860Z,8.33
2022-10-14T04:34:48.677Z,8.32
2022-10-14T04:37:19.857Z,8.30
2022-10-14T04:39:57.175Z,8.27
2022-10-14T04:42:25.781Z,8.26
2022-10-14T04:44:57.090Z,8.25
2022-10-14T04:47:31.368Z,8.20
2022-10-14T04:50:02.386Z,8.16
2022-10-14T04:52:32.068Z,8.12
2022-10-14T04:55:07.586Z,8.12
2022-10-14T04:57:43.139Z,8.13
2022-10-14T05:00:14.961Z,8.12
2022-10-14T05:02:54.208Z,8.13
2022-10-14T05:05:27.346Z,8.15
2022-10-14T05:07:57.133Z,8.14
2022-10-14T05:10:30.829Z,8.17
2022-10-14T05:13:00.370Z,8.21
2022-10-14T05:15:30.896Z,8.24
2022-10-14T05:18:05.093Z,8.24
2022-10-14T05:20:59.783Z,8.24
2022-10-14T05:23:34.754Z,8.20
2022-10-14T05:26:03.866Z,8.13
2022-10-14T05:28:32.669Z,8.09
2022-10-14T05:31:01.449Z,8.11
2022-10-14T05:33:31.767Z,8.13
2022-10-14T05:36:00.557Z,8.14
2022-10-14T05:38:34.597Z,8.19
2022-10-14T05:41:03.561Z,8.21
2022-10-14T05:43:32.880Z,8.23
2022-10-14T05:46:02.793Z,8.26
2022-10-14T05:48:33.273Z,8.28
2022-10-14T05:51:02.804Z,8.29
2022-10-14T05:53:32.524Z,8.31
2022-10-14T05:56:03.492Z,8.29
2022-10-14T05:58:33.641Z,8.30
2022-10-14T06:01:02.888Z,8.31
2022-10-14T06:03:32.146Z,8.35
2022-10-14T06:06:00.940Z,8.37
2022-10-14T06:08:31.757Z,8.42
2022-10-14T06:11:03.950Z,8.46
2022-10-14T06:13:32.526Z,8.49
2022-10-14T06:16:05.063Z,8.54
2022-10-14T06:18:34.427Z,8.56
2022-10-14T06:21:04.122Z,8.57
2022-10-14T06:23:32.736Z,8.64
2022-10-14T06:26:05.362Z,8.78
2022-10-14T06:28:34.444Z,8.96
2022-10-14T06:31:03.146Z,9.22
2022-10-14T06:33:32.799Z,9.45
2022-10-14T06:36:03.555Z,9.68
2022-10-14T06:38:32.588Z,9.85
2022-10-14T06:41:01.076Z,10.03
2022-10-14T06:43:29.667Z,10.27
2022-10-14T06:45:58.850Z,10.57
2022-10-14T06:48:27.321Z,10.94
2022-10-14T06:50:57.897Z,11.37
2022-10-14T06:53:26.543Z,11.83
2022-10-14T06:55:59.549Z,12.37
2022-10-14T06:58:28.797Z,12.89
2022-10-14T07:01:02.145Z,13.33
2022-10-14T07:03:30.944Z,13.63
2022-10-14T07:06:02.302Z,13.89
2022-10-14T07:08:30.945Z,14.23
2022-10-14T07:10:59.481Z,14.57
2022-10-14T07:13:27.841Z,14.88
2022-10-14T07:15:56.452Z,15.08
2022-10-14T07:18:24.786Z,15.28
2022-10-14T07:20:53.234Z,15.54
2022-10-14T07:23:21.587Z,15.85
2022-10-14T07:25:50.158Z,16.16
2022-10-14T07:28:18.819Z,16.47
2022-10-14T07:30:55.643Z,16.78
2022-10-14T07:33:24.346Z,17.07
2022-10-14T07:35:52.753Z,17.21
2022-10-14T07:38:21.155Z,17.35
2022-10-14T07:40:58.233Z,17.54
2022-10-14T07:43:27.313Z,17.77
2022-10-14T07:46:00.276Z,18.04
2022-10-14T07:48:38.539Z,18.33
2022-10-14T07:51:13.791Z,18.61
2022-10-14T07:53:42.509Z,18.84
2022-10-14T07:56:11.009Z,18.98
2022-10-14T07:58:44.205Z,19.00
2022-10-14T08:01:14.782Z,18.87
2022-10-14T08:03:44.711Z,18.65
2022-10-14T08:06:13.649Z,18.41
2022-10-14T08:08:43.361Z,18.17
2022-10-14T08:11:13.746Z,17.95
2022-10-14T08:13:45.294Z,17.72
2022-10-14T08:16:18.071Z,17.49
2022-10-14T08:18:46.998Z,17.44
2022-10-14T08:21:16.395Z,17.59
2022-10-14T08:23:45.295Z,17.80
2022-10-14T08:26:19.680Z,18.05
2022-10-14T08:28:49.961Z,18.18
2022-10-14T08:31:19.387Z,18.27
2022-10-14T08:33:47.853Z,18.44
2022-10-14T08:36:16.791Z,18.57
2022-10-14T08:38:45.707Z,18.71
2022-10-14T08:41:26.774Z,18.86
2022-10-14T08:44:07.654Z,19.00
2022-10-14T08:46:39.743Z,19.18
2022-10-14T08:49:13.281Z,19.33
2022-10-14T08:51:44.832Z,19.54
2022-10-14T08:54:17.444Z,19.73
2022-10-14T08:56:46.204Z,20.01
2022-10-14T08:59:19.579Z,20.23
2022-10-14T09:01:52.408Z,20.35
2022-10-14T09:04:21.542Z,20.46
2022-10-14T09:06:51.746Z,20.64
2022-10-14T09:09:24.764Z,20.86
2022-10-14T09:11:59.516Z,21.10
2022-10-14T09:14:33.021Z,21.22
2022-10-14T09:19:51.084Z,21.34
2022-10-14T09:22:20.393Z,21.37
2022-10-14T09:24:49.079Z,21.32
2022-10-14T09:27:21.142Z,21.36
2022-10-14T09:29:53.838Z,21.53
2022-10-14T09:32:29.837Z,21.70
2022-10-14T09:34:58.916Z,21.83
2022-10-14T09:37:29.808Z,21.83
2022-10-14T09:40:01.814Z,21.89
2022-10-14T09:42:44.173Z,21.94
2022-10-14T09:45:14.775Z,21.98
2022-10-14T09:47:52.610Z,21.98
2022-10-14T09:50:24.510Z,21.94
2022-10-14T09:52:59.192Z,21.96
2022-10-14T09:55:28.441Z,22.02
2022-10-14T09:58:03.817Z,22.17
2022-10-14T10:00:35.159Z,22.15
2022-10-14T10:03:04.619Z,22.15
2022-10-14T10:05:34.926Z,22.08
2022-10-14T10:08:15.127Z,21.88
2022-10-14T10:11:02.004Z,21.79
2022-10-14T10:13:39.533Z,21.63
2022-10-14T10:16:21.275Z,21.53
2022-10-14T10:18:50.639Z,21.44
2022-10-14T10:21:24.343Z,21.30
2022-10-14T10:23:55.633Z,21.01
2022-10-14T10:26:26.423Z,20.75
2022-10-14T10:28:57.086Z,20.56
2022-10-14T10:31:50.653Z,20.34
2022-10-14T10:34:45.790Z,20.16
2022-10-14T10:37:25.718Z,20.05
2022-10-14T10:40:10.042Z,19.97
2022-10-14T10:42:50.889Z,19.91
2022-10-14T10:45:36.727Z,19.77
2022-10-14T10:48:14.475Z,19.70
2022-10-14T10:50:55.280Z,19.65
2022-10-14T10:54:02.086Z,19.61
2022-10-14T10:56:41.036Z,19.51
2022-10-14T10:59:47.028Z,19.46
2022-10-14T11:02:43.545Z,19.44
2022-10-14T11:05:17.147Z,19.37
2022-10-14T11:08:13.723Z,19.21
2022-10-14T11:11:10.957Z,19.08
2022-10-14T11:13:50.059Z,19.01
2022-10-14T11:16:31.895Z,19.01
2022-10-14T11:19:10.938Z,18.97
2022-10-14T11:21:46.836Z,18.94
2022-10-14T11:24:26.627Z,18.89
2022-10-14T11:27:09.765Z,18.84
2022-10-14T11:29:57.902Z,18.76
2022-10-14T11:32:37.301Z,18.71
2022-10-14T11:35:21.331Z,18.70
2022-10-14T11:38:04.857Z,18.69
2022-10-14T11:40:39.392Z,18.68
2022-10-14T11:43:21.999Z,18.67
2022-10-14T11:45:56.693Z,18.70
2022-10-14T11:48:33.365Z,18.71
2022-10-14T11:51:11.239Z,18.71
2022-10-14T11:53:54.287Z,18.73
2022-10-14T11:56:32.313Z,18.78
2022-10-14T11:59:17.039Z,18.80
2022-10-14T12:01:51.707Z,18.81
2022-10-14T12:04:28.459Z,18.79
2022-10-14T12:07:05.342Z,18.79
2022-10-14T12:09:39.764Z,18.79
2022-10-14T12:12:13.138Z,18.83
2022-10-14T12:14:44.473Z,18.84
2022-10-14T12:17:23.632Z,18.83
2022-10-14T12:19:52.916Z,18.82
2022-10-14T12:22:24.669Z,18.80
2022-10-14T12:24:55.044Z,18.77
2022-10-14T12:27:26.492Z,18.75
2022-10-14T12:29:56.834Z,18.76
2022-10-14T12:32:27.363Z,18.75
2022-10-14T12:34:57.814Z,18.77
2022-10-14T12:37:51.035Z,18.80
2022-10-14T12:40:32.093Z,18.87
2022-10-14T12:43:17.335Z,18.91
2022-10-14T12:45:59.411Z,18.95
2022-10-14T12:48:31.843Z,18.94
2022-10-14T12:51:09.904Z,18.94
2022-10-14T12:53:47.029Z,18.88
2022-10-14T12:56:29.287Z,18.86
2022-10-14T12:59:00.967Z,18.85
2022-10-14T13:01:33.749Z,18.84
2022-10-14T13:04:17.423Z,18.82
2022-10-14T13:07:35.643Z,18.79
2022-10-14T13:10:46.794Z,18.77
2022-10-14T13:13:52.207Z,18.73
2022-10-14T13:17:04.930Z,18.70
2022-10-14T13:19:46.690Z,18.62
2022-10-14T13:22:34.547Z,18.57
2022-10-14T13:25:11.850Z,18.51
2022-10-14T13:27:53.768Z,18.49
2022-10-14T13:30:34.066Z,18.45
2022-10-14T13:33:12.268Z,18.42
2022-10-14T13:35:51.611Z,18.40
2022-10-14T13:38:23.040Z,18.37
2022-10-14T13:40:51.909Z,18.32
2022-10-14T13:43:26.076Z,18.26
2022-10-14T13:46:04.188Z,18.23
2022-10-14T13:48:35.657Z,18.20
2022-10-14T13:51:41.331Z,18.20
2022-10-14T13:54:16.984Z,18.22
2022-10-14T13:57:19.853Z,18.21
2022-10-14T14:00:39.165Z,18.19
2022-10-14T14:02:44.097Z,18.19
2022-10-14T14:05:18.547Z,18.19
2022-10-14T14:08:30.548Z,18.18
2022-10-14T14:10:51.402Z,18.19
2022-10-14T14:13:29.990Z,18.22
2022-10-14T14:15:59.111Z,18.23
2022-10-14T14:18:49.171Z,18.24
2022-10-14T14:21:27.225Z,18.25
2022-10-14T14:23:57.289Z,18.26
2022-10-14T14:26:35.639Z,18.26
2022-10-14T14:29:14.290Z,18.25
2022-10-14T14:32:06.542Z,18.23
2022-10-14T14:34:36.146Z,18.22
2022-10-14T14:40:01.148Z,18.17
2022-10-14T14:42:35.322Z,18.16
2022-10-14T14:45:12.249Z,18.13
2022-10-14T14:47:41.923Z,18.08
2022-10-14T14:50:29.632Z,18.03
2022-10-14T14:53:03.795Z,17.97
2022-10-14T14:58:38.114Z,17.84
2022-10-14T15:01:16.421Z,17.79
2022-10-14T15:04:13.686Z,17.71
2022-10-14T15:06:51.831Z,17.63
2022-10-14T15:09:29.886Z,17.56
2022-10-14T15:12:00.918Z,17.50
2022-10-14T15:14:33.925Z,17.43
2022-10-14T15:17:05.791Z,17.37
2022-10-14T15:19:38.399Z,17.31
2022-10-14T15:22:22.918Z,17.27
2022-10-14T15:25:06.425Z,17.20
2022-10-14T15:27:59.038Z,17.14
2022-10-14T15:30:32.312Z,17.06
2022-10-14T15:33:10.692Z,16.99
2022-10-14T15:35:39.444Z,16.94
2022-10-14T15:38:15.959Z,16.89
2022-10-14T15:40:46.197Z,16.81
2022-10-14T15:43:20.463Z,16.76
2022-10-14T15:46:11.371Z,16.69
2022-10-14T15:48:48.018Z,16.57
2022-10-14T15:51:20.710Z,16.48
2022-10-14T15:53:49.473Z,16.41
2022-10-14T15:56:20.193Z,16.33
2022-10-14T15:58:49.002Z,16.24
2022-10-14T16:01:19.979Z,16.16
2022-10-14T16:03:49.065Z,16.11
2022-10-14T16:06:18.702Z,16.06
2022-10-14T16:08:47.591Z,16.00
2022-10-14T16:11:21.928Z,15.93
2022-10-14T16:13:50.376Z,15.87
2022-10-14T16:16:23.720Z,15.81
2022-10-14T16:18:52.281Z,15.75
2022-10-14T16:21:20.896Z,15.69
2022-10-14T16:23:53.116Z,15.64
2022-10-14T16:26:21.701Z,15.59
2022-10-14T16:28:50.208Z,15.56
2022-10-14T16:31:18.792Z,15.53
2022-10-14T16:33:50.161Z,15.49
2022-10-14T16:36:19.075Z,15.44
2022-10-14T16:38:47.767Z,15.39
2022-10-14T16:41:16.553Z,15.34
2022-10-14T16:43:46.745Z,15.28
2022-10-14T16:46:15.665Z,15.23
2022-10-14T16:48:44.762Z,15.16
2022-10-14T16:51:13.298Z,15.11
2022-10-14T16:53:44.144Z,15.07
2022-10-14T16:56:33.107Z,15.02
2022-10-14T16:59:02.050Z,14.97
2022-10-14T17:01:34.352Z,14.95
2022-10-14T17:04:03.760Z,14.92
2022-10-14T17:06:32.658Z,14.87
2022-10-14T17:09:01.258Z,14.84
2022-10-14T17:11:30.434Z,14.80
2022-10-14T17:14:00.701Z,14.77
2022-10-14T17:16:29.510Z,14.73
2022-10-14T17:18:59.123Z,14.69
2022-10-14T17:21:28.758Z,14.64
2022-10-14T17:24:01.307Z,14.60
2022-10-14T17:26:30.905Z,14.55
2022-10-14T17:28:59.556Z,14.52
2022-10-14T17:31:29.138Z,14.50
2022-10-14T17:33:59.448Z,14.47
2022-10-14T17:36:30.550Z,14.43
2022-10-14T17:38:59.697Z,14.41
2022-10-14T17:41:29.761Z,14.39
2022-10-14T17:44:00.789Z,14.36
2022-10-14T17:46:31.637Z,14.30
2022-10-14T17:49:03.228Z,14.28
2022-10-14T17:51:33.030Z,14.26
2022-10-14T17:54:03.989Z,14.23
2022-10-14T17:56:35.051Z,14.21
2022-10-14T17:59:06.252Z,14.16
2022-10-14T18:02:02.099Z,14.13
2022-10-14T18:04:24.552Z,14.09
2022-10-14T18:06:53.719Z,14.04
2022-10-14T18:09:22.155Z,14.00
2022-10-14T18:14:41.187Z,13.89
2022-10-14T18:17:11.937Z,13.84
2022-10-14T18:19:41.507Z,13.82
2022-10-14T18:22:10.722Z,13.77
2022-10-14T18:24:40.049Z,13.74
2022-10-14T18:27:08.973Z,13.71
2022-10-14T18:29:38.490Z,13.65
2022-10-14T18:32:06.913Z,13.61
2022-10-14T18:34:36.089Z,13.58
2022-10-14T18:37:05.476Z,13.54
2022-10-14T18:39:34.423Z,13.50
2022-10-14T18:42:03.863Z,13.45
2022-10-14T18:44:32.717Z,13.41
2022-10-14T18:47:01.493Z,13.38
2022-10-14T18:49:33.644Z,13.35
2022-10-14T18:52:05.356Z,13.31
2022-10-14T18:54:34.064Z,13.27
2022-10-14T18:57:02.712Z,13.22
2022-10-14T18:59:32.187Z,13.17
2022-10-14T19:02:01.042Z,13.12
2022-10-14T19:04:29.681Z,13.08
2022-10-14T19:06:58.695Z,13.05
2022-10-14T19:09:29.346Z,13.00
2022-10-14T19:11:58.794Z,12.96
2022-10-14T19:14:33.431Z,12.91
2022-10-14T19:17:02.074Z,12.86
2022-10-14T19:19:30.697Z,12.83
2022-10-14T19:22:00.379Z,12.81
2022-10-14T19:24:32.065Z,12.77
2022-10-14T19:27:04.143Z,12.73
2022-10-14T19:29:37.831Z,12.69
2022-10-14T19:32:10.875Z,12.66
2022-10-14T19:34:48.246Z,12.62
2022-10-14T19:37:20.228Z,12.58
2022-10-14T19:39:54.450Z,12.54
2022-10-14T19:42:24.046Z,12.49
2022-10-14T19:44:53.374Z,12.45
2022-10-14T19:47:22.245Z,12.44
2022-10-14T19:49:50.898Z,12.42
2022-10-14T19:52:19.912Z,12.40
2022-10-14T19:54:48.314Z,12.39
2022-10-14T19:57:17.486Z,12.36
2022-10-14T19:59:47.547Z,12.33
2022-10-14T20:02:16.110Z,12.30
2022-10-14T20:04:44.684Z,12.29
2022-10-14T20:07:13.322Z,12.27
2022-10-14T20:09:41.988Z,12.25
2022-10-14T20:12:10.537Z,12.25
2022-10-14T20:14:41.812Z,12.24
2022-10-14T20:17:10.329Z,12.22
2022-10-14T20:19:38.937Z,12.20
2022-10-14T20:22:07.514Z,12.18
2022-10-14T20:24:39.193Z,12.17
2022-10-14T20:27:10.926Z,12.15
2022-10-14T20:29:40.558Z,12.10
2022-10-14T20:32:09.470Z,12.09
2022-10-14T20:34:37.800Z,12.08
2022-10-14T20:37:06.220Z,12.07
2022-10-14T20:39:34.721Z,12.06
2022-10-14T20:42:05.927Z,12.05
2022-10-14T20:44:34.663Z,12.03
2022-10-14T20:47:04.607Z,12.02
2022-10-14T20:49:33.010Z,12.02
2022-10-14T20:52:01.321Z,12.01
2022-10-14T20:54:29.899Z,12.01
2022-10-14T20:56:58.547Z,12.02
2022-10-14T20:59:26.969Z,12.03
2022-10-14T21:01:55.434Z,12.04
2022-10-14T21:04:24.162Z,12.06
2022-10-14T21:06:52.876Z,12.06
2022-10-14T21:09:21.372Z,12.07
2022-10-14T21:11:49.953Z,12.08
2022-10-14T21:14:18.433Z,12.10
2022-10-14T21:16:46.849Z,12.10
2022-10-14T21:19:15.251Z,12.09
2022-10-14T21:21:44.852Z,12.09
2022-10-14T21:24:14.364Z,12.10
2022-10-14T21:26:43.060Z,12.11
2022-10-14T21:29:11.525Z,12.12
2022-10-14T21:31:40.114Z,12.15
2022-10-14T21:34:09.405Z,12.16
2022-10-14T21:36:39.766Z,12.18
2022-10-14T21:39:09.599Z,12.18
2022-10-14T21:41:39.548Z,12.19
2022-10-14T21:44:09.016Z,12.20
2022-10-14T21:46:37.394Z,12.20
2022-10-14T21:49:05.802Z,12.20
2022-10-14T21:51:34.433Z,12.20
2022-10-14T21:54:03.601Z,12.22
2022-10-14T21:56:32.281Z,12.23
2022-10-14T21:59:00.630Z,12.23
2022-10-14T22:01:30.072Z,12.24
2022-10-14T22:04:00.368Z,12.24
2022-10-14T22:06:29.031Z,12.24
2022-10-14T22:08:59.220Z,12.22
2022-10-14T22:11:29.690Z,12.21
2022-10-14T22:14:00.122Z,12.19
2022-10-14T22:16:29.426Z,12.18
2022-10-14T22:19:00.870Z,12.15
2022-10-14T22:21:32.015Z,12.12
2022-10-14T22:24:01.275Z,12.08
2022-10-14T22:26:31.141Z,12.04
2022-10-14T22:29:01.352Z,12.02
2022-10-14T22:31:32.131Z,12.00
2022-10-14T22:34:01.187Z,11.98
2022-10-14T22:36:31.570Z,11.97
2022-10-14T22:39:02.197Z,11.94
2022-10-14T22:41:35.109Z,11.92
2022-10-14T22:44:05.461Z,11.89
2022-10-14T22:46:35.283Z,11.89
2022-10-14T22:49:04.003Z,11.89
2022-10-14T22:51:34.176Z,11.87
2022-10-14T22:54:03.451Z,11.85
2022-10-14T22:56:32.039Z,11.84
2022-10-14T22:59:02.545Z,11.85
2022-10-14T23:01:31.297Z,11.86
2022-10-14T23:04:00.680Z,11.88
2022-10-14T23:06:30.305Z,11.89
2022-10-14T23:08:59.770Z,11.89
2022-10-14T23:11:30.072Z,11.89
2022-10-14T23:14:01.466Z,11.90
2022-10-14T23:16:33.116Z,11.89
2022-10-14T23:19:02.032Z,11.87
2022-10-14T23:21:32.271Z,11.87
2022-10-14T23:24:02.508Z,11.86
2022-10-14T23:26:32.610Z,11.85
2022-10-14T23:29:02.475Z,11.84
2022-10-14T23:31:33.540Z,11.85
2022-10-14T23:34:04.319Z,11.83
2022-10-14T23:36:33.541Z,11.83
2022-10-14T23:39:01.903Z,11.82
2022-10-14T23:41:30.604Z,11.82
2022-10-14T23:43:59.035Z,11.83
2022-10-14T23:46:27.507Z,11.85
2022-10-14T23:49:06.638Z,11.87
2022-10-14T23:51:43.049Z,11.89
2022-10-14T23:54:12.202Z,11.90
2022-10-14T23:56:41.408Z,11.90
2022-10-14T23:59:10.135Z,11.90
